Time;durP1;ratioP1;P1;durP2;ratioP2;P2;SDS_P1;SDS_P2;PMS_P1;PMS_P2;Temp;Humidity;BMP_temperature;BMP_pressure;BME280_temperature;BME280_humidity;BME280_pressure;Samples;Min_cycle;Max_cycle;Signal;HPM_P1;HPM_P2
2022/08/11 00:01:11;;;;;;;2.47;2.20;;;;;;;16.73;58.29;98580.47;5089264;28;20242;-65
2022/08/11 00:03:44;;;;;;;2.77;2.40;;;;;;;16.73;59.02;98575.13;5091519;28;20240;-66
2022/08/11 00:06:13;;;;;;;2.50;2.30;;;;;;;16.64;60.38;98575.91;5091499;28;20207;-65
2022/08/11 00:08:40;;;;;;;2.60;2.40;;;;;;;16.62;60.31;98577.88;5089540;28;20244;-65
2022/08/11 00:11:09;;;;;;;2.20;2.00;;;;;;;16.63;59.67;98578.72;5090961;28;20238;-65
2022/08/11 00:13:37;;;;;;;3.70;2.27;;;;;;;16.63;59.25;98573.41;5091323;28;20562;-65
2022/08/11 00:16:13;;;;;;;2.30;2.20;;;;;;;16.58;59.87;98570.28;5089327;28;20215;-66
2022/08/11 00:18:43;;;;;;;2.50;2.30;;;;;;;16.53;60.43;98567.16;5089026;28;20310;-65
2022/08/11 00:21:11;;;;;;;3.20;2.50;;;;;;;16.54;59.57;98564.34;5091376;28;20246;-65
2022/08/11 00:23:43;;;;;;;2.67;2.47;;;;;;;16.49;60.41;98573.72;5091189;28;20211;-65
2022/08/11 00:26:10;;;;;;;3.20;2.13;;;;;;;16.44;60.66;98574.13;5091096;28;20219;-65
2022/08/11 00:28:37;;;;;;;2.57;2.33;;;;;;;16.39;61.27;98571.00;5086822;28;20567;-65
2022/08/11 00:31:06;;;;;;;2.40;2.20;;;;;;;16.42;60.58;98580.56;5091150;28;20211;-65
2022/08/11 00:33:37;;;;;;;2.57;2.20;;;;;;;16.39;61.12;98579.00;5090954;28;20225;-65
2022/08/11 00:36:08;;;;;;;7.00;2.63;;;;;;;16.34;61.92;98580.34;5090399;28;20221;-65
2022/08/11 00:38:42;;;;;;;2.50;2.30;;;;;;;16.29;61.58;98578.09;5089905;28;20222;-65
2022/08/11 00:41:20;;;;;;;3.20;2.33;;;;;;;16.29;61.16;98580.75;5083839;28;20734;-65
2022/08/11 00:44:04;;;;;;;2.50;2.30;;;;;;;16.28;61.61;98583.53;5090957;28;20233;-67
2022/08/11 00:46:40;;;;;;;2.50;2.30;;;;;;;16.21;62.61;98580.53;5089629;28;20219;-65
2022/08/11 00:49:16;;;;;;;2.97;2.50;;;;;;;16.27;61.28;98587.19;5090800;28;20645;-65
2022/08/11 00:52:07;;;;;;;2.50;2.30;;;;;;;16.13;61.99;98580.34;5090344;28;20224;-65
2022/08/11 00:55:02;;;;;;;2.60;2.40;;;;;;;16.07;63.26;98585.34;5064637;28;20581;-65
2022/08/11 00:57:53;;;;;;;3.30;2.40;;;;;;;16.00;63.34;98578.00;5090614;28;20300;-65
2022/08/11 01:00:22;;;;;;;2.80;2.43;;;;;;;15.95;63.99;98574.88;5090416;28;20211;-65
2022/08/11 01:03:18;;;;;;;2.83;2.50;;;;;;;15.86;64.88;98576.50;5090443;28;20676;-65
2022/08/11 01:06:31;;;;;;;2.70;2.50;;;;;;;15.85;64.68;98577.47;5088586;28;20214;-65
2022/08/11 01:09:34;;;;;;;2.93;2.43;;;;;;;15.85;64.40;98584.59;5075083;28;20249;-65
2022/08/11 01:12:24;;;;;;;2.53;2.30;;;;;;;15.88;63.60;98587.03;5034551;28;20218;-65
2022/08/11 01:15:34;;;;;;;2.67;2.47;;;;;;;15.86;63.21;98580.97;5090330;28;20207;-65
2022/08/11 01:18:54;;;;;;;4.10;2.80;;;;;;;15.77;64.29;98576.41;4992804;28;20225;-65
2022/08/11 01:21:53;;;;;;;3.00;2.40;;;;;;;15.69;64.93;98579.69;4993580;28;20242;-65
2022/08/11 01:24:51;;;;;;;3.10;2.80;;;;;;;15.79;63.55;98575.31;5066984;28;20211;-65
2022/08/11 01:27:53;;;;;;;2.40;2.20;;;;;;;15.79;64.01;98579.78;5089133;28;20218;-65
2022/08/11 01:30:57;;;;;;;2.50;2.30;;;;;;;15.75;64.68;98578.34;5069563;28;20224;-65
2022/08/11 01:34:19;;;;;;;3.17;2.53;;;;;;;15.75;64.93;98583.66;5086138;28;20587;-65
2022/08/11 01:37:21;;;;;;;3.60;2.47;;;;;;;15.71;64.16;98568.91;5090039;28;20218;-65
2022/08/11 01:40:17;;;;;;;2.77;2.57;;;;;;;15.64;64.98;98579.22;5060281;28;20198;-65
2022/08/11 01:45:59;;;;;;;3.53;2.67;;;;;;;15.61;65.27;98570.63;5067225;28;20683;-65
2022/08/11 01:48:39;;;;;;;3.70;2.63;;;;;;;15.51;65.96;98565.22;5089906;28;20676;-65
2022/08/11 01:51:17;;;;;;;3.33;2.60;;;;;;;15.45;65.91;98564.91;5087828;28;20234;-65
2022/08/11 01:53:54;;;;;;;3.33;2.50;;;;;;;15.48;65.96;98559.31;5089917;28;20219;-65
2022/08/11 01:56:46;;;;;;;2.90;2.60;;;;;;;15.41;66.48;98576.78;5090142;28;20210;-65
2022/08/11 01:59:17;;;;;;;2.90;2.60;;;;;;;15.38;66.54;98569.00;5090471;28;20219;-65
2022/08/11 02:02:18;;;;;;;3.30;3.00;;;;;;;15.35;66.43;98579.94;5093608;28;20235;-65
2022/08/11 02:04:55;;;;;;;3.77;2.90;;;;;;;15.35;65.86;98579.94;5091803;28;20221;-65
2022/08/11 02:07:32;;;;;;;3.27;2.97;;;;;;;15.30;66.48;98568.75;5068498;28;20218;-65
2022/08/11 02:13:12;;;;;;;3.07;2.77;;;;;;;15.18;68.25;98559.97;5092569;28;20797;-65
2022/08/11 02:15:45;;;;;;;3.47;2.67;;;;;;;15.21;68.00;98564.19;5093633;28;20215;-65
2022/08/11 02:18:20;;;;;;;3.60;2.90;;;;;;;15.17;68.72;98560.09;5093567;28;20210;-65
2022/08/11 02:23:46;;;;;;;3.07;2.77;;;;;;;15.30;66.94;98566.09;5093411;28;20213;-65
2022/08/11 02:26:20;;;;;;;3.77;3.10;;;;;;;15.23;67.41;98557.78;5091179;28;20216;-65
2022/08/11 02:28:55;;;;;;;3.40;3.10;;;;;;;15.22;67.22;98560.56;5092750;28;20214;-64
2022/08/11 02:34:24;;;;;;;3.77;3.20;;;;;;;15.36;66.39;98554.97;5090733;28;20233;-65
2022/08/11 02:37:00;;;;;;;3.50;3.20;;;;;;;15.23;67.17;98560.44;5092965;28;20707;-65
2022/08/11 02:39:35;;;;;;;3.50;3.20;;;;;;;15.12;68.17;98552.47;5092021;28;20225;-65
2022/08/11 02:42:23;;;;;;;4.13;3.30;;;;;;;15.15;67.87;98551.38;5089296;28;20238;-66
2022/08/11 02:45:06;;;;;;;4.13;3.47;;;;;;;15.08;68.35;98545.69;5068699;28;20613;-65
2022/08/11 02:50:39;;;;;;;3.30;3.00;;;;;;;14.90;69.90;98549.00;5065906;28;20210;-66
2022/08/11 02:53:12;;;;;;;4.07;3.20;;;;;;;14.84;70.63;98552.16;5092767;28;20227;-65
2022/08/11 02:55:53;;;;;;;3.20;3.00;;;;;;;14.80;70.67;98558.69;5092674;28;20214;-64
2022/08/11 02:58:31;;;;;;;3.40;3.10;;;;;;;14.71;71.38;98557.59;5092677;28;20306;-66
2022/08/11 03:01:10;;;;;;;3.50;3.20;;;;;;;14.68;71.76;98552.53;5092770;28;20210;-65
2022/08/11 03:03:44;;;;;;;4.07;3.17;;;;;;;14.70;71.53;98555.03;5091868;28;20226;-64
2022/08/11 03:06:24;;;;;;;3.10;2.90;;;;;;;14.64;71.94;98551.06;5092561;28;20206;-66
2022/08/11 03:08:56;;;;;;;3.53;3.23;;;;;;;14.59;72.33;98552.38;5092410;28;20214;-65
2022/08/11 03:17:28;;;;;;;3.67;3.37;;;;;;;14.53;73.03;98552.84;5090043;28;20252;-64
2022/08/11 03:20:05;;;;;;;3.80;3.23;;;;;;;14.49;73.26;98556.75;5091278;28;20238;-64
2022/08/11 03:22:38;;;;;;;3.70;3.20;;;;;;;14.41;74.35;98561.78;5083040;28;20238;-64
2022/08/11 03:25:12;;;;;;;3.50;3.20;;;;;;;14.44;73.46;98561.56;5092360;28;20260;-64
2022/08/11 03:27:50;;;;;;;3.50;3.20;;;;;;;14.42;73.31;98558.19;5088690;28;20211;-64
2022/08/11 03:30:25;;;;;;;3.37;3.07;;;;;;;14.44;73.40;98564.22;5091978;28;20675;-64
2022/08/11 03:36:05;;;;;;;3.30;3.00;;;;;;;14.45;73.35;98565.91;5066137;28;20218;-64
2022/08/11 03:38:49;;;;;;;3.80;3.17;;;;;;;14.34;74.43;98568.56;5091749;28;20210;-64
2022/08/11 03:41:45;;;;;;;4.47;3.50;;;;;;;14.32;74.81;98566.03;5076959;28;20231;-64
2022/08/11 03:44:28;;;;;;;3.50;3.20;;;;;;;14.33;74.51;98569.53;5089999;28;20664;-64
2022/08/11 03:47:17;;;;;;;3.40;3.10;;;;;;;14.37;73.71;98576.31;5090811;28;20210;-64
2022/08/11 03:50:01;;;;;;;4.13;3.60;;;;;;;14.38;74.18;98570.03;5068268;28;20297;-64
2022/08/11 03:52:42;;;;;;;3.53;3.23;;;;;;;14.41;73.75;98569.75;5091745;28;20211;-65
2022/08/11 03:55:15;;;;;;;3.63;3.30;;;;;;;14.48;72.76;98576.31;5088137;28;20556;-64
2022/08/11 03:58:24;;;;;;;3.83;3.30;;;;;;;14.59;72.23;98571.84;5091591;28;20214;-64
2022/08/11 04:01:13;;;;;;;3.37;3.07;;;;;;;14.60;72.25;98570.06;5089332;28;20215;-64
2022/08/11 04:03:58;;;;;;;3.73;3.20;;;;;;;14.56;72.88;98569.44;5091370;28;20305;-64
2022/08/11 04:07:04;;;;;;;3.67;3.00;;;;;;;14.53;73.12;98572.34;5091212;28;20225;-64
2022/08/11 04:10:03;;;;;;;3.33;3.03;;;;;;;14.56;72.96;98565.94;5066226;28;20575;-64
2022/08/11 04:12:46;;;;;;;3.50;3.20;;;;;;;14.66;73.59;98574.91;5089899;28;20225;-65
2022/08/11 04:16:01;;;;;;;4.00;3.60;;;;;;;14.74;72.49;98572.47;5066164;28;20213;-64
2022/08/11 04:19:11;;;;;;;4.43;3.47;;;;;;;14.82;71.16;98575.34;5089311;28;20352;-64
2022/08/11 04:22:16;;;;;;;3.67;3.37;;;;;;;14.71;72.82;98567.38;5045380;28;20284;-64
2022/08/11 04:24:59;;;;;;;3.67;3.07;;;;;;;14.66;73.85;98569.56;5084378;28;20207;-64
2022/08/11 04:28:05;;;;;;;3.47;3.17;;;;;;;14.67;73.61;98571.25;5088491;28;20218;-64
2022/08/11 04:30:50;;;;;;;4.17;3.10;;;;;;;14.68;73.15;98570.28;5085722;28;20215;-65
2022/08/11 04:33:43;;;;;;;3.70;3.30;;;;;;;14.68;73.43;98572.94;5089449;28;20707;-65
2022/08/11 04:39:27;;;;;;;3.20;2.90;;;;;;;14.75;73.35;98572.34;5071582;28;20221;-65
2022/08/11 04:45:35;;;;;;;3.60;2.93;;;;;;;14.92;72.99;98577.16;5068235;28;20350;-66
2022/08/11 05:07:20;;;;;;;4.20;3.20;;;;;;;15.79;69.44;98595.78;5090150;27;20211;-65
2022/08/11 05:10:18;;;;;;;3.73;3.40;;;;;;;16.02;68.17;98593.72;5086971;28;20218;-64
2022/08/11 05:12:48;;;;;;;4.20;3.50;;;;;;;16.18;67.88;98591.47;5085674;28;20218;-64
2022/08/11 05:35:26;;;;;;;4.00;3.30;;;;;;;17.34;63.51;98586.59;5090648;28;20222;-64
2022/08/11 05:57:30;;;;;;;3.53;3.23;;;;;;;21.51;49.19;98596.06;5086893;28;20217;-65
2022/08/11 06:00:02;;;;;;;3.27;2.97;;;;;;;22.09;48.24;98589.66;5089394;28;20568;-65
2022/08/11 06:02:29;;;;;;;4.13;2.80;;;;;;;22.73;46.21;98592.34;5088920;28;20707;-65
2022/08/11 06:04:57;;;;;;;7.43;3.07;;;;;;;23.03;44.87;98588.91;5085494;28;20226;-65
2022/08/11 06:07:28;;;;;;;4.87;3.30;;;;;;;23.17;44.92;98588.22;5089054;28;20218;-65
2022/08/11 06:09:56;;;;;;;3.37;3.07;;;;;;;23.60;44.47;98585.00;5090187;28;20218;-65
2022/08/11 06:12:24;;;;;;;4.57;3.27;;;;;;;24.19;43.10;98587.03;5089784;28;20214;-65
2022/08/11 06:14:54;;;;;;;3.87;3.03;;;;;;;24.54;42.41;98585.56;5086592;28;20298;-65
2022/08/11 06:17:25;;;;;;;3.93;2.80;;;;;;;25.11;41.98;98590.25;5090081;28;20218;-64
2022/08/11 06:19:56;;;;;;;3.57;2.77;;;;;;;25.52;40.02;98588.78;5088333;28;20242;-65
2022/08/11 06:22:23;;;;;;;3.83;3.17;;;;;;;25.44;39.80;98588.03;5088282;28;20256;-65
2022/08/11 06:24:54;;;;;;;3.30;3.00;;;;;;;25.35;39.95;98587.28;5086757;28;20218;-66
2022/08/11 06:27:22;;;;;;;2.80;2.60;;;;;;;25.62;39.91;98588.47;5089830;28;20219;-66
2022/08/11 06:29:51;;;;;;;3.30;2.70;;;;;;;25.88;38.82;98584.22;5089865;28;20207;-65
2022/08/11 06:32:19;;;;;;;4.63;3.07;;;;;;;25.56;38.99;98592.81;5087511;28;20559;-65
2022/08/11 06:35:01;;;;;;;4.57;3.10;;;;;;;25.35;39.57;98587.28;5087178;28;20688;-65
2022/08/11 06:37:45;;;;;;;3.20;2.73;;;;;;;25.23;39.83;98588.75;5089751;28;20210;-65
2022/08/11 06:40:23;;;;;;;3.50;2.90;;;;;;;24.90;40.52;98603.69;5082579;28;20207;-65
2022/08/11 06:43:01;;;;;;;4.13;3.03;;;;;;;24.04;42.24;98605.03;5088119;28;20238;-65
2022/08/11 06:45:34;;;;;;;4.10;3.27;;;;;;;22.98;44.34;98593.97;5088217;28;20219;-65
2022/08/11 06:48:01;;;;;;;3.40;3.10;;;;;;;22.24;45.97;98598.75;5087000;28;20649;-65
2022/08/11 06:53:19;;;;;;;3.27;2.97;;;;;;;21.45;47.87;98597.53;5089451;28;20218;-66
2022/08/11 07:01:36;;;;;;;3.50;3.20;;;;;;;21.35;49.37;98590.59;5089244;28;20339;-65
2022/08/11 07:04:07;;;;;;;3.43;3.07;;;;;;;21.38;49.43;98601.88;5081361;28;20219;-65
2022/08/11 07:15:40;;;;;;;3.80;3.10;;;;;;;21.26;49.22;98597.78;5076843;28;20214;-65
2022/08/11 07:15:41;;;;;;;3.93;3.30;;;;;;;21.49;49.76;98596.22;5087137;28;20348;-65
2022/08/11 07:29:31;;;;;;;5.13;3.10;;;;;;;22.20;49.03;98592.00;5079648;28;20280;-64
2022/08/11 07:32:03;;;;;;;3.70;3.00;;;;;;;22.29;49.08;98587.47;5087874;28;20218;-65
2022/08/11 07:34:35;;;;;;;3.60;3.30;;;;;;;22.40;48.70;98577.22;5088744;28;20210;-64
2022/08/11 07:37:08;;;;;;;3.43;3.13;;;;;;;22.47;48.02;98582.78;5086951;28;20210;-64
2022/08/11 07:39:38;;;;;;;3.80;2.80;;;;;;;22.61;48.08;98588.31;5084018;28;20219;-65
2022/08/11 07:42:06;;;;;;;4.70;3.10;;;;;;;22.81;47.18;98578.84;5088477;28;20243;-65
2022/08/11 07:48:10;;;;;;;3.67;2.97;;;;;;;22.90;47.99;98585.91;5088428;28;20211;-65
2022/08/11 07:52:54;;;;;;;3.40;3.10;;;;;;;23.28;46.89;98579.75;5085894;28;20242;-65
2022/08/11 07:55:25;;;;;;;3.93;3.30;;;;;;;23.36;47.12;98574.31;5084309;28;20306;-65
2022/08/11 08:19:53;;;;;;;5.20;2.93;;;;;;;24.43;43.37;98562.53;5082597;28;20250;-65
2022/08/11 08:22:21;;;;;;;2.73;2.53;;;;;;;24.58;43.44;98559.88;5083698;28;20605;-65
2022/08/11 08:24:48;;;;;;;3.23;2.93;;;;;;;24.70;43.06;98553.84;5084537;28;20216;-65
2022/08/11 08:27:18;;;;;;;3.17;2.87;;;;;;;24.85;43.25;98557.41;5087908;28;20221;-65
2022/08/11 08:32:32;;;;;;;3.57;2.90;;;;;;;25.18;41.48;98560.59;5079141;28;20214;-65
2022/08/11 08:34:59;;;;;;;2.85;2.65;;;;;;;25.30;41.07;98559.94;5087207;28;20560;-66
2022/08/11 08:37:27;;;;;;;3.13;2.80;;;;;;;25.44;40.18;98556.41;5085664;28;20219;-66
2022/08/11 08:39:54;;;;;;;3.40;2.60;;;;;;;25.54;39.27;98564.22;5080164;28;20581;-66
2022/08/11 08:42:26;;;;;;;4.97;2.80;;;;;;;25.62;38.96;98558.69;5083771;28;20591;-66
2022/08/11 08:44:59;;;;;;;3.22;2.88;;;;;;;25.75;38.92;98556.16;5066116;28;20217;-65
2022/08/11 08:47:27;;;;;;;2.80;2.60;;;;;;;25.83;38.26;98559.56;5087192;28;20222;-65
2022/08/11 08:50:00;;;;;;;3.90;2.40;;;;;;;25.73;38.19;98552.81;5085335;28;20214;-65
2022/08/11 08:52:30;;;;;;;3.07;2.67;;;;;;;25.88;38.39;98551.72;5085072;28;20224;-65
2022/08/11 08:55:02;;;;;;;2.50;2.30;;;;;;;25.95;37.97;98554.53;5087298;28;20671;-65
2022/08/11 08:57:33;;;;;;;2.90;2.40;;;;;;;26.02;37.46;98556.28;5085426;28;20706;-65
2022/08/11 09:00:01;;;;;;;2.75;2.50;;;;;;;26.11;37.40;98557.84;5078309;28;20215;-65
2022/08/11 09:02:28;;;;;;;3.30;2.35;;;;;;;26.15;38.12;98559.13;5086232;28;20230;-65
2022/08/11 09:04:55;;;;;;;3.80;2.22;;;;;;;26.23;38.00;98547.31;5086821;28;20691;-65
2022/08/11 09:07:25;;;;;;;2.65;2.45;;;;;;;26.28;37.96;98547.56;5086516;28;20217;-65
2022/08/11 09:09:54;;;;;;;2.30;2.10;;;;;;;26.41;36.31;98547.69;5083058;28;20211;-65
2022/08/11 09:12:22;;;;;;;2.30;2.10;;;;;;;26.41;36.71;98545.84;5086516;28;20221;-65
2022/08/11 09:15:02;;;;;;;2.58;2.30;;;;;;;26.47;36.83;98553.19;5087004;28;20256;-65
2022/08/11 09:17:31;;;;;;;2.97;2.15;;;;;;;26.50;36.28;98549.22;5084540;28;20304;-66
2022/08/11 09:20:01;;;;;;;1.92;1.83;;;;;;;26.42;36.93;98555.63;5084546;28;20264;-64
2022/08/11 09:28:01;;;;;;;2.58;2.30;;;;;;;26.69;35.43;98562.97;5085430;28;20260;-64
2022/08/11 09:30:29;;;;;;;3.15;2.40;;;;;;;26.71;35.17;98549.22;5086673;28;20207;-65
2022/08/11 09:32:59;;;;;;;3.40;2.40;;;;;;;26.78;34.22;98556.38;5086829;28;20234;-64
2022/08/11 09:35:27;;;;;;;2.45;2.00;;;;;;;26.77;34.17;98554.69;5078063;28;20214;-64
2022/08/11 09:40:43;;;;;;;2.67;2.17;;;;;;;26.80;35.61;98562.44;5086709;28;20225;-64
2022/08/11 09:45:58;;;;;;;3.70;2.50;;;;;;;27.01;35.52;98551.50;5066833;28;20251;-64
2022/08/11 09:48:27;;;;;;;2.80;1.93;;;;;;;27.11;33.61;98557.44;5084938;28;20236;-65
2022/08/11 09:50:56;;;;;;;4.38;2.30;;;;;;;27.19;33.78;98554.56;5084328;28;20332;-64
2022/08/11 09:53:25;;;;;;;2.45;1.90;;;;;;;27.25;34.40;98551.06;5084133;28;20219;-65
2022/08/11 09:55:52;;;;;;;3.75;1.90;;;;;;;27.33;33.40;98555.50;5086855;28;20211;-64
2022/08/11 09:58:18;;;;;;;4.85;2.03;;;;;;;27.48;33.91;98542.63;5086663;28;20571;-64
2022/08/11 10:00:48;;;;;;;2.40;2.20;;;;;;;27.54;33.81;98550.78;5084087;28;20264;-65
2022/08/11 10:03:22;;;;;;;3.10;2.55;;;;;;;27.52;33.79;98544.72;5084012;28;20239;-66
2022/08/11 10:08:40;;;;;;;2.22;1.98;;;;;;;27.59;32.76;98540.16;5083695;28;20222;-65
2022/08/11 10:11:09;;;;;;;3.83;2.10;;;;;;;27.69;32.45;98546.88;5084129;28;20222;-65
2022/08/11 10:15:32;;;;;;;2.03;1.83;;;;;;;27.84;32.67;98534.03;5084987;28;20226;-65
2022/08/11 10:16:28;;;;;;;2.42;2.22;;;;;;;28.01;32.20;98539.91;5084293;28;20268;-65
2022/08/11 10:18:59;;;;;;;2.35;2.10;;;;;;;28.02;31.84;98537.00;5085614;28;20215;-66
2022/08/11 10:21:37;;;;;;;3.03;2.00;;;;;;;27.94;32.37;98539.06;5090555;28;20211;-65
2022/08/11 10:26:59;;;;;;;2.08;1.88;;;;;;;27.74;32.39;98525.38;5075627;28;20352;-65
2022/08/11 10:35:01;;;;;;;2.92;2.08;;;;;;;27.85;33.33;98521.25;5089446;28;20337;-65
2022/08/11 10:37:35;;;;;;;2.70;2.05;;;;;;;27.97;32.35;98527.75;5089990;28;20576;-66
2022/08/11 10:40:06;;;;;;;2.17;1.85;;;;;;;28.07;32.35;98518.16;5082621;28;20626;-65
2022/08/11 10:48:04;;;;;;;2.20;2.00;;;;;;;27.93;31.72;98516.47;5086285;28;20296;-65
2022/08/11 10:58:48;;;;;;;2.88;2.05;;;;;;;28.36;31.15;98511.50;5071188;28;20225;-65
2022/08/11 11:01:18;;;;;;;2.30;2.10;;;;;;;28.24;30.59;98500.41;5089554;28;20264;-65
2022/08/11 11:03:46;;;;;;;2.10;2.00;;;;;;;28.16;31.67;98494.34;5085992;28;20231;-65
2022/08/11 11:06:24;;;;;;;2.30;2.10;;;;;;;28.30;30.99;98485.16;5085662;28;20588;-65
2022/08/11 11:08:56;;;;;;;2.40;2.08;;;;;;;28.35;29.95;98490.78;5089393;28;20214;-66
2022/08/11 11:17:54;;;;;;;2.03;1.90;;;;;;;28.33;30.17;98501.03;5088076;28;20624;-65
2022/08/11 11:19:53;;;;;;;3.17;2.00;;;;;;;28.40;30.47;98486.44;5082043;28;20692;-65
2022/08/11 11:22:40;;;;;;;2.50;1.73;;;;;;;28.47;30.08;98479.09;5088895;28;20227;-66
2022/08/11 11:25:22;;;;;;;2.75;1.95;;;;;;;28.50;30.23;98486.00;5087905;28;20215;-65
2022/08/11 11:28:00;;;;;;;2.20;2.00;;;;;;;28.36;30.83;98476.16;5086642;28;20575;-66
2022/08/11 11:30:35;;;;;;;2.20;2.00;;;;;;;28.22;29.82;98469.03;5088564;28;20221;-65
2022/08/11 11:33:08;;;;;;;2.30;2.10;;;;;;;28.29;31.69;98475.31;5086060;28;20218;-65
2022/08/11 11:35:44;;;;;;;2.20;2.00;;;;;;;28.56;30.10;98461.50;5085547;28;20215;-65
2022/08/11 11:38:12;;;;;;;2.13;1.92;;;;;;;28.56;30.77;98463.41;5088874;28;20233;-65
2022/08/11 11:40:40;;;;;;;2.20;2.00;;;;;;;28.58;30.51;98455.88;5088848;28;20211;-66
2022/08/11 11:43:07;;;;;;;2.30;1.92;;;;;;;28.75;29.72;98451.66;5085325;28;20267;-65
2022/08/11 11:45:34;;;;;;;2.00;1.90;;;;;;;28.77;29.45;98449.56;5086822;28;20550;-66
2022/08/11 11:48:01;;;;;;;2.22;2.00;;;;;;;28.74;29.99;98455.44;5088181;28;20218;-65
2022/08/11 11:50:31;;;;;;;2.10;1.90;;;;;;;28.80;29.85;98446.41;5088202;28;20210;-65
2022/08/11 11:53:00;;;;;;;2.17;2.08;;;;;;;28.80;30.51;98454.59;5084599;28;20225;-65
2022/08/11 11:55:29;;;;;;;1.90;1.80;;;;;;;28.91;29.23;98464.81;5086955;28;20215;-66
2022/08/11 12:03:29;;;;;;;2.55;1.85;;;;;;;28.64;29.79;98444.13;5087908;28;20241;-65
2022/08/11 12:05:57;;;;;;;2.25;2.05;;;;;;;28.66;29.16;98442.03;5086867;28;20221;-66
2022/08/11 12:08:25;;;;;;;2.30;1.90;;;;;;;28.93;30.34;98443.66;5087020;28;20226;-66
2022/08/11 12:13:39;;;;;;;2.35;1.95;;;;;;;29.01;29.01;98435.28;5084408;28;20216;-66
2022/08/11 12:13:44;;;;;;;2.10;1.90;;;;;;;29.14;28.83;98440.66;5072439;28;20250;-64
2022/08/11 12:16:13;;;;;;;3.10;1.88;;;;;;;29.00;29.90;98436.34;5087308;28;20218;-65
2022/08/11 12:18:41;;;;;;;2.47;1.80;;;;;;;29.07;29.25;98424.38;5084147;28;20242;-65
2022/08/11 12:21:13;;;;;;;2.00;1.90;;;;;;;29.14;29.46;98429.78;5087150;28;20253;-66
2022/08/11 12:29:12;;;;;;;2.35;2.15;;;;;;;29.20;28.96;98420.75;5068402;28;20431;-64
2022/08/11 12:31:40;;;;;;;2.97;2.10;;;;;;;29.14;28.74;98424.34;5087739;28;20215;-64
2022/08/11 12:34:08;;;;;;;2.60;1.90;;;;;;;29.04;29.08;98415.81;5085069;28;20215;-64
2022/08/11 12:36:38;;;;;;;2.25;1.95;;;;;;;29.03;29.72;98414.16;5084815;28;20219;-64
2022/08/11 12:39:09;;;;;;;3.15;2.13;;;;;;;29.13;28.54;98406.34;5087633;28;20210;-64
2022/08/11 12:47:13;;;;;;;3.40;1.80;;;;;;;29.35;29.22;98404.97;5087308;28;20222;-65
2022/08/11 12:52:36;;;;;;;1.90;1.80;;;;;;;29.52;27.94;98395.25;5086132;28;20222;-65
2022/08/11 12:55:09;;;;;;;2.45;1.98;;;;;;;29.39;28.08;98389.84;5087561;28;20215;-64
2022/08/11 13:05:58;;;;;;;3.10;1.95;;;;;;;29.67;27.94;98388.47;5079211;28;20222;-65
2022/08/11 13:08:28;;;;;;;1.85;1.65;;;;;;;29.61;27.52;98383.06;5065720;28;20207;-65
2022/08/11 13:13:43;;;;;;;2.22;1.70;;;;;;;29.58;27.48;98372.59;5078213;28;20272;-65
2022/08/11 13:16:11;;;;;;;1.80;1.70;;;;;;;29.53;27.64;98375.97;5084606;28;20216;-65
2022/08/11 13:18:41;;;;;;;3.20;1.75;;;;;;;29.56;26.66;98369.25;5086979;28;20215;-66
2022/08/11 13:21:10;;;;;;;1.70;1.60;;;;;;;29.36;27.32;98366.63;5086478;28;20241;-65
2022/08/11 13:23:38;;;;;;;2.42;1.85;;;;;;;29.50;27.29;98365.50;5083223;28;20242;-65
2022/08/11 13:26:06;;;;;;;2.63;1.98;;;;;;;29.55;26.69;98362.97;5086840;28;20216;-65
2022/08/11 13:28:35;;;;;;;1.98;1.88;;;;;;;29.52;27.11;98362.56;5087037;28;20210;-64
2022/08/11 13:31:13;;;;;;;2.67;1.95;;;;;;;29.53;27.14;98364.25;5085273;28;20368;-65
2022/08/11 13:33:42;;;;;;;1.98;1.73;;;;;;;29.56;27.16;98358.34;5084764;28;20219;-65
2022/08/11 13:36:10;;;;;;;2.28;1.65;;;;;;;29.60;28.41;98354.97;5087008;28;20214;-65
2022/08/11 13:38:40;;;;;;;2.47;1.60;;;;;;;29.77;26.91;98360.72;5086635;28;20676;-65
2022/08/11 13:41:36;;;;;;;2.05;1.85;;;;;;;29.89;26.40;98353.50;5072238;28;20661;-65
2022/08/11 13:43:55;;;;;;;1.65;1.55;;;;;;;29.93;26.71;98371.06;5065521;28;20701;-65
2022/08/11 13:46:25;;;;;;;3.15;1.58;;;;;;;29.99;25.74;98362.84;5086882;28;20574;-65
2022/08/11 13:48:55;;;;;;;2.85;1.60;;;;;;;29.92;26.43;98353.03;5084369;28;20207;-65
2022/08/11 13:51:36;;;;;;;2.35;1.67;;;;;;;29.93;26.58;98349.25;5081244;28;20222;-65
2022/08/11 13:54:05;;;;;;;2.38;1.65;;;;;;;29.94;25.52;98346.31;5078992;28;20297;-66
2022/08/11 13:56:33;;;;;;;1.90;1.80;;;;;;;29.90;26.37;98345.06;5088701;28;20516;-66
2022/08/11 13:59:01;;;;;;;2.85;1.58;;;;;;;29.91;25.40;98345.94;5085812;28;20219;-65
2022/08/11 14:01:32;;;;;;;1.55;1.45;;;;;;;29.99;26.30;98342.91;5089170;28;20643;-66
2022/08/11 14:04:05;;;;;;;1.70;1.60;;;;;;;29.99;25.09;98343.75;5089146;28;20703;-65
2022/08/11 14:06:33;;;;;;;1.63;1.50;;;;;;;29.96;25.07;98337.91;5086872;28;20207;-66
2022/08/11 14:09:01;;;;;;;2.30;1.52;;;;;;;29.90;25.80;98342.34;5084082;28;20237;-66
2022/08/11 14:14:21;;;;;;;1.58;1.48;;;;;;;29.73;26.25;98324.06;5088033;28;20218;-66
2022/08/11 14:16:51;;;;;;;2.20;1.63;;;;;;;29.87;25.75;98312.00;5085051;28;20226;-65
2022/08/11 14:19:22;;;;;;;2.30;1.88;;;;;;;29.73;26.45;98311.28;5088426;28;20234;-66
2022/08/11 14:22:06;;;;;;;3.42;1.70;;;;;;;29.79;25.50;98313.13;5089011;28;20218;-66
2022/08/11 14:24:36;;;;;;;2.42;1.60;;;;;;;29.86;25.91;98310.31;5080603;28;20234;-66
2022/08/11 14:27:03;;;;;;;1.58;1.45;;;;;;;29.87;25.90;98315.56;5088596;28;20221;-66
2022/08/11 14:29:31;;;;;;;1.70;1.60;;;;;;;29.92;25.58;98314.88;5088875;28;20254;-65
2022/08/11 14:32:03;;;;;;;1.40;1.30;;;;;;;29.85;25.73;98319.56;5087563;28;20222;-65
2022/08/11 14:34:33;;;;;;;1.85;1.60;;;;;;;29.89;25.78;98315.34;5084654;28;20688;-67
2022/08/11 14:37:03;;;;;;;1.52;1.42;;;;;;;29.94;25.24;98310.88;5087231;28;20302;-65
2022/08/11 14:39:34;;;;;;;1.80;1.70;;;;;;;29.94;25.89;98313.59;5087861;28;20214;-65
2022/08/11 14:47:37;;;;;;;2.22;2.03;;;;;;;29.79;26.53;98301.38;5087417;28;20636;-63
2022/08/11 14:50:06;;;;;;;2.50;2.00;;;;;;;29.79;26.95;98299.50;5078584;28;20226;-63
2022/08/11 14:52:34;;;;;;;1.70;1.60;;;;;;;29.73;26.47;98288.66;5085805;28;20242;-66
2022/08/11 14:57:47;;;;;;;1.60;1.50;;;;;;;29.87;25.58;98279.28;5072994;28;20512;-63
2022/08/11 15:00:17;;;;;;;1.85;1.75;;;;;;;30.03;25.32;98290.47;5075925;28;20210;-64
2022/08/11 15:05:32;;;;;;;2.88;1.95;;;;;;;29.92;26.26;98290.34;5073757;28;20355;-64
2022/08/11 15:08:01;;;;;;;2.58;1.75;;;;;;;29.81;25.88;98281.03;5075624;28;20565;-64
2022/08/11 15:10:28;;;;;;;2.47;1.60;;;;;;;29.76;26.83;98283.59;5076278;28;20218;-64
2022/08/11 15:12:55;;;;;;;1.83;1.73;;;;;;;29.75;27.13;98272.91;5078143;28;20212;-64
2022/08/11 15:18:13;;;;;;;2.70;1.67;;;;;;;29.66;27.27;98263.34;5076203;28;20285;-63
2022/08/11 15:26:12;;;;;;;2.15;1.95;;;;;;;29.70;26.73;98262.66;5076016;28;20422;-64
2022/08/11 15:37:26;;;;;;;1.77;1.63;;;;;;;29.50;26.07;98264.72;5074002;28;20217;-63
2022/08/11 15:45:49;;;;;;;1.80;1.70;;;;;;;29.40;25.99;98241.75;5074365;28;20276;-63
2022/08/11 15:48:27;;;;;;;2.10;1.90;;;;;;;29.38;25.87;98246.56;5077128;28;20727;-63
2022/08/11 15:51:00;;;;;;;2.10;1.60;;;;;;;29.37;25.92;98244.91;5076099;28;20215;-63
2022/08/11 15:53:32;;;;;;;1.90;1.70;;;;;;;29.45;26.29;98241.91;5074831;28;20219;-64
2022/08/11 15:56:01;;;;;;;1.92;1.73;;;;;;;29.41;26.09;98240.69;5075057;28;20217;-64
2022/08/11 16:04:11;;;;;;;1.80;1.70;;;;;;;29.25;26.51;98241.22;5078088;28;20254;-65
2022/08/11 16:06:44;;;;;;;2.13;1.92;;;;;;;29.25;26.76;98243.97;5076677;28;20217;-65
2022/08/11 16:09:13;;;;;;;1.95;1.77;;;;;;;29.15;27.02;98241.72;5076402;28;20211;-65
2022/08/11 16:11:40;;;;;;;3.00;1.63;;;;;;;29.06;27.19;98236.75;5073842;28;20684;-65
2022/08/11 16:16:53;;;;;;;2.30;1.80;;;;;;;29.00;26.66;98237.66;5075017;28;20222;-66
2022/08/11 16:19:21;;;;;;;2.88;1.80;;;;;;;29.02;25.91;98230.09;5075806;28;20235;-65
2022/08/11 16:21:52;;;;;;;2.28;1.70;;;;;;;28.95;26.94;98234.75;5076677;28;20483;-66
2022/08/11 16:24:20;;;;;;;2.67;1.50;;;;;;;28.94;27.31;98233.03;5076046;28;20242;-66
2022/08/11 16:26:47;;;;;;;2.10;1.90;;;;;;;28.77;26.56;98238.19;5075835;28;20219;-66
2022/08/11 16:29:15;;;;;;;3.15;1.92;;;;;;;28.70;26.81;98236.53;5075521;28;20219;-65
2022/08/11 16:32:15;;;;;;;2.28;2.10;;;;;;;28.70;26.43;98228.38;5078530;28;20210;-65
2022/08/11 16:40:01;;;;;;;1.92;1.80;;;;;;;28.35;27.56;98217.00;5074156;28;20222;-65